Time;durP1;ratioP1;P1;durP2;ratioP2;P2;SDS_P1;SDS_P2;PMS_P1;PMS_P2;Temp;Humidity;BMP_temperature;BMP_pressure;BME280_temperature;BME280_humidity;BME280_pressure;Samples;Min_cycle;Max_cycle;Signal;HPM_P1;HPM_P2
2021/08/30 00:01:19;;;;;;;4.38;3.30;;;;;;;14.86;100.00;101152.84;4966224;28;20055;-88
2021/08/30 00:03:54;;;;;;;4.15;3.33;;;;;;;14.87;100.00;101162.69;4960875;28;20054;-88
2021/08/30 00:06:27;;;;;;;4.72;3.08;;;;;;;14.77;100.00;101149.94;4971739;28;20047;-87
2021/08/30 00:09:00;;;;;;;4.65;3.30;;;;;;;14.82;100.00;101160.03;4972837;28;20047;-87
2021/08/30 00:11:34;;;;;;;5.15;3.20;;;;;;;14.91;100.00;101163.72;4967801;28;20816;-89
2021/08/30 00:14:07;;;;;;;4.53;3.22;;;;;;;14.92;100.00;101162.63;4962800;28;20399;-87
2021/08/30 00:16:40;;;;;;;6.30;3.80;;;;;;;14.90;100.00;101156.63;4964740;28;20519;-89
2021/08/30 00:19:15;;;;;;;4.50;3.38;;;;;;;14.93;100.00;101155.22;4971125;28;20063;-87
2021/08/30 00:21:48;;;;;;;5.10;3.40;;;;;;;14.83;100.00;101152.63;4972325;28;20061;-86
2021/08/30 00:24:24;;;;;;;7.03;3.65;;;;;;;14.95;100.00;101158.47;4972402;28;20061;-87
2021/08/30 00:26:57;;;;;;;5.13;3.50;;;;;;;14.79;100.00;101157.91;4973003;28;20403;-89
2021/08/30 00:29:25;;;;;;;5.18;3.35;;;;;;;14.84;100.00;101159.75;4972047;28;20058;-86
2021/08/30 00:32:45;;;;;;;5.38;3.47;;;;;;;14.75;100.00;101163.16;4968749;28;20070;-88
2021/08/30 00:35:20;;;;;;;5.30;3.65;;;;;;;14.71;100.00;101159.38;4956365;28;20043;-86
2021/08/30 00:37:53;;;;;;;5.85;3.50;;;;;;;14.73;100.00;101151.66;4971355;28;20066;-85
2021/08/30 00:40:22;;;;;;;5.20;3.70;;;;;;;14.75;100.00;101146.72;4972225;28;20717;-89
2021/08/30 00:42:55;;;;;;;5.13;3.70;;;;;;;14.81;100.00;101154.88;4971817;28;20082;-89
2021/08/30 00:45:23;;;;;;;7.00;3.78;;;;;;;14.75;100.00;101170.56;4965098;28;20054;-86
2021/08/30 00:47:57;;;;;;;5.30;3.60;;;;;;;14.72;100.00;101155.53;4962838;28;20062;-88
2021/08/30 00:50:26;;;;;;;5.50;3.50;;;;;;;14.75;100.00;101160.41;4970772;28;20066;-87
2021/08/30 00:53:00;;;;;;;5.15;3.60;;;;;;;14.73;100.00;101156.34;4962137;28;20077;-86
2021/08/30 00:55:34;;;;;;;5.65;3.90;;;;;;;14.64;100.00;101150.72;4962184;28;20042;-88
2021/08/30 00:58:08;;;;;;;5.82;3.80;;;;;;;14.69;100.00;101149.81;4970159;28;20054;-89
2021/08/30 01:00:36;;;;;;;5.38;3.70;;;;;;;14.69;100.00;101144.34;4963884;28;20050;-87
2021/08/30 01:03:10;;;;;;;5.25;3.35;;;;;;;14.67;100.00;101152.84;4970124;28;20054;-86
2021/08/30 01:05:55;;;;;;;6.13;3.58;;;;;;;14.66;100.00;101162.19;4971528;28;20422;-89
2021/08/30 01:08:33;;;;;;;4.65;3.30;;;;;;;14.62;100.00;101167.44;4969117;28;20050;-90
2021/08/30 01:11:09;;;;;;;4.97;3.60;;;;;;;14.65;100.00;101168.75;4968910;28;20051;-88
2021/08/30 01:13:48;;;;;;;5.43;3.55;;;;;;;14.63;100.00;101168.25;4972324;28;20051;-88
2021/08/30 01:16:17;;;;;;;4.95;3.58;;;;;;;14.60;100.00;101171.56;4971682;28;20054;-88
2021/08/30 01:18:53;;;;;;;4.95;3.40;;;;;;;14.66;100.00;101178.63;4964026;28;20066;-87
2021/08/30 01:21:32;;;;;;;5.53;3.55;;;;;;;14.62;100.00;101170.19;4970261;28;20051;-88
2021/08/30 01:24:04;;;;;;;5.57;3.70;;;;;;;14.58;100.00;101180.06;4974135;28;20055;-86
2021/08/30 01:26:41;;;;;;;5.65;3.75;;;;;;;14.64;100.00;101178.09;4966268;28;20051;-86
2021/08/30 01:29:24;;;;;;;5.28;3.67;;;;;;;14.58;100.00;101171.84;4974319;28;20479;-87
2021/08/30 01:32:02;;;;;;;5.50;3.55;;;;;;;14.62;100.00;101175.66;4975250;28;20061;-89
2021/08/30 01:34:33;;;;;;;4.45;3.40;;;;;;;14.58;100.00;101168.28;4975971;28;20055;-88
2021/08/30 01:37:06;;;;;;;6.32;3.60;;;;;;;14.58;100.00;101177.34;4970615;28;20061;-89
2021/08/30 01:39:36;;;;;;;5.03;3.28;;;;;;;14.39;100.00;101140.88;4974503;28;20062;-88
2021/08/30 01:42:09;;;;;;;4.65;3.20;;;;;;;14.58;100.00;101171.03;4967123;28;20059;-87
2021/08/30 01:44:46;;;;;;;4.90;3.45;;;;;;;14.57;100.00;101178.44;4975048;28;20391;-89
2021/08/30 01:47:21;;;;;;;4.35;2.92;;;;;;;14.66;100.00;101175.06;4973820;28;20058;-88
2021/08/30 01:50:02;;;;;;;4.18;2.90;;;;;;;14.63;100.00;101174.53;4974855;28;20054;-90
2021/08/30 01:52:34;;;;;;;4.20;2.90;;;;;;;14.61;100.00;101174.00;4969573;28;20069;-89
2021/08/30 01:55:16;;;;;;;5.38;3.00;;;;;;;14.48;100.00;101163.75;4974629;28;20074;-87
2021/08/30 02:00:44;;;;;;;4.35;3.22;;;;;;;14.57;100.00;101166.66;4972245;28;20043;-85
2021/08/30 02:03:15;;;;;;;3.90;2.90;;;;;;;14.52;100.00;101164.81;4973001;28;20051;-87
2021/08/30 02:05:47;;;;;;;4.50;2.92;;;;;;;14.46;100.00;101169.53;4974753;28;20046;-90
2021/08/30 02:08:22;;;;;;;3.53;2.80;;;;;;;14.57;100.00;101178.44;4971586;28;20066;-88
2021/08/30 02:10:59;;;;;;;4.00;2.60;;;;;;;14.54;100.00;101176.28;4962209;28;20666;-87
2021/08/30 02:13:33;;;;;;;;;;;;;;;14.56;100.00;101168.59;4971984;28;20058;-87
2021/08/30 02:16:07;;;;;;;3.47;2.50;;;;;;;14.44;100.00;101171.78;4967493;28;20015;-87
2021/08/30 02:18:44;;;;;;;3.85;2.53;;;;;;;14.45;100.00;101180.78;4961341;28;20058;-88
2021/08/30 02:21:20;;;;;;;3.78;2.42;;;;;;;14.43;100.00;101172.88;4964232;28;20054;-87
2021/08/30 02:23:59;;;;;;;4.68;2.70;;;;;;;14.43;100.00;101155.59;4968557;28;20645;-88
2021/08/30 02:26:40;;;;;;;3.72;2.80;;;;;;;14.47;100.00;101162.13;4969336;28;20038;-88
2021/08/30 02:29:33;;;;;;;3.40;2.63;;;;;;;14.46;100.00;101160.53;4973571;28;20059;-88
2021/08/30 02:32:08;;;;;;;3.92;2.40;;;;;;;14.61;100.00;101164.94;4971097;28;20054;-87
2021/08/30 02:34:46;;;;;;;3.83;2.42;;;;;;;14.62;100.00;101175.66;4969175;28;20039;-88
2021/08/30 02:37:24;;;;;;;3.25;2.45;;;;;;;14.54;100.00;101167.25;4966347;28;20046;-89
2021/08/30 02:39:58;;;;;;;;;;;;;;;14.50;100.00;101164.28;4975576;28;20399;-88
2021/08/30 02:42:33;;;;;;;3.83;2.55;;;;;;;14.51;100.00;101159.63;4975117;28;19922;-89
2021/08/30 02:45:09;;;;;;;3.45;2.60;;;;;;;14.47;100.00;101162.13;4974539;28;20435;-89
2021/08/30 02:47:43;;;;;;;3.75;2.55;;;;;;;14.47;100.00;101156.66;4966241;28;20058;-87
2021/08/30 02:50:14;;;;;;;3.83;2.40;;;;;;;14.48;100.00;101150.06;4970381;28;20051;-89
2021/08/30 02:52:50;;;;;;;4.00;2.50;;;;;;;14.43;100.00;101153.69;4962712;28;20062;-86
2021/08/30 02:55:23;;;;;;;3.13;2.30;;;;;;;14.41;100.00;101152.38;4971819;28;20053;-87
2021/08/30 02:57:58;;;;;;;3.22;2.42;;;;;;;14.38;100.00;101150.22;4975438;28;20051;-86
2021/08/30 03:00:32;;;;;;;4.60;2.60;;;;;;;14.44;100.00;101155.34;4975931;28;20055;-89
2021/08/30 03:03:05;;;;;;;3.70;2.70;;;;;;;14.44;100.00;101157.25;4973683;28;20051;-86
2021/08/30 03:05:41;;;;;;;4.25;2.70;;;;;;;14.34;100.00;101154.66;4969004;28;20483;-88
2021/08/30 03:08:16;;;;;;;4.35;2.85;;;;;;;14.34;100.00;101154.66;4971923;28;20053;-87
2021/08/30 03:10:51;;;;;;;4.93;3.00;;;;;;;14.38;100.00;101152.97;4972125;28;20058;-87
2021/08/30 03:13:20;;;;;;;4.55;2.67;;;;;;;14.47;100.00;101151.16;4974224;28;20047;-87
2021/08/30 03:15:54;;;;;;;3.97;2.85;;;;;;;14.35;100.00;101143.41;4969865;28;20065;-87
2021/08/30 03:18:27;;;;;;;3.78;3.10;;;;;;;14.34;100.00;101149.19;4973021;28;20046;-87
2021/08/30 03:20:57;;;;;;;4.15;2.92;;;;;;;14.35;100.00;101151.63;4977981;28;20059;-87
2021/08/30 03:23:33;;;;;;;4.22;2.92;;;;;;;14.38;100.00;101152.97;4956075;28;20407;-87
2021/08/30 03:26:03;;;;;;;4.20;2.92;;;;;;;14.33;100.00;101144.81;4959031;28;20053;-89
2021/08/30 03:28:37;;;;;;;3.90;2.90;;;;;;;14.36;100.00;101156.00;4973938;28;20716;-88
2021/08/30 03:31:11;;;;;;;5.82;3.38;;;;;;;14.41;100.00;101155.91;4970489;28;20577;-88
2021/08/30 03:33:44;;;;;;;4.43;3.05;;;;;;;14.41;100.00;101152.38;4968509;28;20066;-87
2021/08/30 03:36:18;;;;;;;4.22;3.10;;;;;;;14.41;100.00;101146.88;4970936;28;20055;-88
2021/08/30 03:38:53;;;;;;;4.68;2.90;;;;;;;14.34;100.00;101151.91;4972747;28;20047;-88
2021/08/30 03:41:27;;;;;;;4.55;3.00;;;;;;;14.35;100.00;101151.63;4961775;28;20371;-87
2021/08/30 03:44:02;;;;;;;4.15;2.80;;;;;;;14.34;100.00;101144.50;4972017;28;20047;-88
2021/08/30 03:46:31;;;;;;;4.57;2.90;;;;;;;14.35;100.00;101139.84;4972934;28;20054;-88
2021/08/30 03:49:05;;;;;;;4.18;3.05;;;;;;;14.45;100.00;101156.94;4972728;28;20054;-87
2021/08/30 03:51:36;;;;;;;4.10;2.83;;;;;;;14.36;100.00;101156.00;4973565;28;20521;-87
2021/08/30 03:54:11;;;;;;;4.30;2.97;;;;;;;14.31;100.00;101147.84;4967429;28;20051;-87
2021/08/30 03:56:40;;;;;;;3.92;2.58;;;;;;;14.32;100.00;101144.00;4974193;28;20055;-88
2021/08/30 03:59:16;;;;;;;3.38;2.75;;;;;;;14.33;100.00;101150.28;4970403;28;20050;-89
2021/08/30 04:01:52;;;;;;;5.05;3.10;;;;;;;14.38;100.00;101152.97;4970340;28;20046;-88
2021/08/30 04:04:27;;;;;;;4.20;2.88;;;;;;;14.34;100.00;101155.47;4984777;28;20055;-86
2021/08/30 04:07:03;;;;;;;4.00;2.80;;;;;;;14.24;100.00;101150.94;4967209;28;20066;-86
2021/08/30 04:09:38;;;;;;;4.30;3.00;;;;;;;14.32;100.00;101151.38;4983433;28;20046;-87
2021/08/30 04:12:12;;;;;;;4.32;3.00;;;;;;;14.34;100.00;101157.41;4970820;28;20069;-86
2021/08/30 04:14:41;;;;;;;4.10;2.65;;;;;;;14.34;100.00;101154.66;4971188;28;20070;-89
2021/08/30 04:17:14;;;;;;;4.25;2.83;;;;;;;14.33;100.00;101153.03;4970843;28;20054;-87
2021/08/30 04:19:47;;;;;;;4.07;2.80;;;;;;;14.33;100.00;101163.97;4972304;28;20069;-86
2021/08/30 04:22:20;;;;;;;4.35;3.05;;;;;;;14.31;100.00;101158.78;4953477;28;20051;-88
2021/08/30 04:24:55;;;;;;;4.68;3.00;;;;;;;14.32;100.00;101157.69;4953790;28;20136;-87
2021/08/30 04:27:28;;;;;;;3.83;2.60;;;;;;;14.38;100.00;101169.38;4971669;28;20483;-86
2021/08/30 04:29:57;;;;;;;4.15;2.90;;;;;;;14.37;100.00;101175.97;4972573;28;20399;-87
2021/08/30 04:32:33;;;;;;;3.85;2.80;;;;;;;14.29;100.00;101178.25;4970514;28;20050;-87
2021/08/30 04:35:08;;;;;;;3.95;2.70;;;;;;;14.32;100.00;101173.28;4966272;28;20047;-88
2021/08/30 04:37:41;;;;;;;3.75;2.80;;;;;;;14.33;100.00;101177.66;4987643;28;20926;-88
2021/08/30 04:40:16;;;;;;;3.63;2.63;;;;;;;14.39;100.00;101185.53;4970225;28;20063;-87
2021/08/30 04:42:49;;;;;;;6.32;3.13;;;;;;;14.28;100.00;101179.34;4969234;28;20046;-87
2021/08/30 04:45:23;;;;;;;4.13;2.80;;;;;;;14.40;100.00;101180.84;4972481;28;20384;-87
2021/08/30 04:47:53;;;;;;;3.72;2.55;;;;;;;14.39;100.00;101179.22;4964974;28;20061;-87
2021/08/30 04:50:22;;;;;;;3.30;2.65;;;;;;;14.32;100.00;101184.22;4968029;28;20399;-88
2021/08/30 04:52:50;;;;;;;3.95;2.65;;;;;;;14.38;100.00;101191.28;4960117;28;20070;-89
2021/08/30 04:55:24;;;;;;;4.68;3.10;;;;;;;14.23;100.00;101182.13;4973787;28;20053;-88
2021/08/30 04:57:53;;;;;;;4.13;2.90;;;;;;;14.23;100.00;101187.63;4970050;28;20055;-88
2021/08/30 05:00:21;;;;;;;4.00;2.80;;;;;;;14.18;100.00;101184.94;4971076;28;20388;-86
2021/08/30 05:02:49;;;;;;;5.57;3.00;;;;;;;14.28;100.00;101190.31;4972851;28;20460;-89
2021/08/30 05:05:22;;;;;;;3.78;2.80;;;;;;;14.27;100.00;101185.13;4976068;28;20053;-87
2021/08/30 05:07:56;;;;;;;4.25;2.90;;;;;;;14.26;100.00;101195.25;4975994;28;20078;-87
2021/08/30 05:10:25;;;;;;;3.67;2.90;;;;;;;14.24;100.00;101199.41;4976652;28;20498;-89
2021/08/30 05:12:53;;;;;;;4.05;2.95;;;;;;;14.34;100.00;101198.47;4973007;28;20058;-88
2021/08/30 05:15:22;;;;;;;4.32;2.80;;;;;;;14.26;100.00;101191.69;4967006;28;20531;-88
2021/08/30 05:17:50;;;;;;;3.53;2.70;;;;;;;14.32;100.00;101204.22;4959495;28;20047;-87
2021/08/30 05:20:23;;;;;;;3.72;2.60;;;;;;;14.34;100.00;101199.25;4960681;28;20051;-89
2021/08/30 05:22:57;;;;;;;4.22;2.80;;;;;;;14.28;100.00;101197.72;4975968;28;20049;-89
2021/08/30 05:25:32;;;;;;;4.45;3.05;;;;;;;14.29;100.00;101204.78;4976254;28;20058;-88
2021/08/30 05:28:06;;;;;;;3.33;2.38;;;;;;;14.44;100.00;101204.63;4977167;28;20054;-89
2021/08/30 05:30:39;;;;;;;4.13;2.80;;;;;;;14.29;100.00;101191.94;4975575;28;20467;-89
2021/08/30 05:33:12;;;;;;;3.63;2.60;;;;;;;14.37;100.00;101214.28;4966770;28;20067;-88
2021/08/30 05:35:40;;;;;;;5.05;2.53;;;;;;;14.48;100.00;101204.84;4975295;28;20061;-88
2021/08/30 05:38:13;;;;;;;3.85;2.72;;;;;;;14.45;100.00;101214.44;4974669;28;20058;-86
2021/08/30 05:40:43;;;;;;;3.85;2.50;;;;;;;14.57;100.00;101211.31;4974987;28;20054;-87
2021/08/30 05:43:16;;;;;;;3.13;2.25;;;;;;;14.53;100.00;101212.16;4960458;28;20058;-88
2021/08/30 05:45:49;;;;;;;4.30;2.67;;;;;;;14.50;100.00;101208.13;4977573;28;20787;-89
2021/08/30 05:48:21;;;;;;;3.60;2.30;;;;;;;14.65;100.00;101214.53;4972349;28;20042;-87
2021/08/30 05:50:54;;;;;;;3.13;2.40;;;;;;;14.49;100.00;101203.75;4969846;28;20050;-88
2021/08/30 05:53:22;;;;;;;4.15;2.38;;;;;;;14.66;100.00;101213.41;4960972;28;20097;-87
2021/08/30 05:55:57;;;;;;;3.75;2.40;;;;;;;14.70;100.00;101211.72;4975306;28;20491;-87
2021/08/30 05:58:25;;;;;;;5.18;2.47;;;;;;;14.65;100.00;101218.06;4976063;28;20049;-87
2021/08/30 06:00:59;;;;;;;3.28;2.17;;;;;;;14.66;100.00;101225.19;4970111;28;20046;-87
2021/08/30 06:03:27;;;;;;;2.45;1.90;;;;;;;14.76;100.00;101222.31;4975711;28;20118;-91
2021/08/30 06:06:00;;;;;;;2.95;1.77;;;;;;;14.72;100.00;101221.28;4975335;28;20057;-89
2021/08/30 06:08:28;;;;;;;2.60;1.98;;;;;;;14.85;100.00;101217.00;4975682;28;20065;-88
2021/08/30 06:11:03;;;;;;;2.28;1.90;;;;;;;14.96;100.00;101212.19;4966667;28;20042;-88
2021/08/30 06:13:36;;;;;;;2.03;1.65;;;;;;;15.04;100.00;101224.38;4971978;28;20053;-90
2021/08/30 06:16:10;;;;;;;2.17;1.70;;;;;;;14.98;100.00;101223.66;4974739;28;20054;-88
2021/08/30 06:18:42;;;;;;;3.03;1.90;;;;;;;14.94;100.00;101215.22;4974977;28;20435;-87
2021/08/30 06:21:15;;;;;;;2.60;1.90;;;;;;;14.81;100.00;101217.88;4956671;29;20411;-86
2021/08/30 06:23:48;;;;;;;2.38;1.85;;;;;;;14.77;100.00;101221.19;4975340;28;20058;-88
2021/08/30 06:26:23;;;;;;;3.78;2.00;;;;;;;14.84;100.00;101214.53;4964277;28;20407;-87
2021/08/30 06:28:51;;;;;;;4.78;2.13;;;;;;;14.91;100.00;101215.00;4969032;28;20042;-86
2021/08/30 06:31:26;;;;;;;2.22;1.70;;;;;;;14.87;100.00;101222.97;4965120;28;20057;-88
2021/08/30 06:33:55;;;;;;;2.88;1.50;;;;;;;14.91;100.00;101210.31;4969937;28;21019;-85
2021/08/30 06:36:40;;;;;;;2.33;1.80;;;;;;;14.92;100.00;101222.91;4974067;28;20047;-89
2021/08/30 06:39:33;;;;;;;2.65;1.83;;;;;;;14.92;100.00;101222.09;4975154;28;20051;-86
2021/08/30 06:42:09;;;;;;;2.08;1.60;;;;;;;14.91;100.00;101225.94;4969907;28;20254;-87
2021/08/30 06:44:44;;;;;;;3.15;1.70;;;;;;;14.90;100.00;101227.06;4973248;28;20479;-87
2021/08/30 06:47:21;;;;;;;2.40;1.60;;;;;;;14.89;100.00;101228.19;4963778;28;20065;-89
2021/08/30 06:49:49;;;;;;;2.17;1.75;;;;;;;14.84;100.00;101218.09;4985608;28;20054;-89
2021/08/30 06:52:24;;;;;;;2.45;1.80;;;;;;;14.83;100.00;101235.66;4968305;28;20070;-88
2021/08/30 06:54:57;;;;;;;4.47;2.05;;;;;;;14.91;100.00;101231.44;4969905;28;20434;-89
2021/08/30 06:57:35;;;;;;;3.70;2.10;;;;;;;14.86;100.00;101224.09;4964041;28;20404;-87
2021/08/30 07:00:29;;;;;;;2.40;2.03;;;;;;;14.88;100.00;101223.81;4984571;28;20051;-88
2021/08/30 07:03:05;;;;;;;2.75;1.80;;;;;;;14.79;100.00;101220.91;4974315;28;20499;-87
2021/08/30 07:06:05;;;;;;;3.30;2.13;;;;;;;14.67;100.00;101221.34;4986633;28;21317;-89
2021/08/30 07:08:35;;;;;;;2.47;1.73;;;;;;;14.54;100.00;101198.22;4968374;28;20042;-84
2021/08/30 07:11:04;;;;;;;2.78;1.90;;;;;;;14.56;100.00;101189.69;4965302;28;20043;-89
2021/08/30 07:13:34;;;;;;;2.97;1.88;;;;;;;14.75;100.00;101220.69;4965524;28;20058;-87
2021/08/30 07:16:07;;;;;;;3.20;2.00;;;;;;;14.75;100.00;101222.63;4966894;28;20057;-84
2021/08/30 07:18:40;;;;;;;3.42;1.92;;;;;;;14.63;100.00;101234.00;4966965;28;20046;-85
2021/08/30 07:21:14;;;;;;;3.72;1.85;;;;;;;14.55;100.00;101229.94;4969643;28;20399;-87
2021/08/30 07:23:42;;;;;;;2.08;1.73;;;;;;;14.57;100.00;101235.13;4965088;28;20059;-84
2021/08/30 07:26:15;;;;;;;2.58;1.90;;;;;;;14.45;100.00;101232.81;4965749;28;20081;-85
2021/08/30 07:28:45;;;;;;;3.55;2.10;;;;;;;14.49;100.00;101236.59;4965397;28;20058;-86
2021/08/30 07:31:18;;;;;;;4.15;2.00;;;;;;;14.48;100.00;101240.44;4966430;28;20051;-85
2021/08/30 07:33:47;;;;;;;2.65;1.80;;;;;;;14.51;100.00;101244.53;4965191;28;20423;-89
2021/08/30 07:36:16;;;;;;;2.90;1.90;;;;;;;14.42;100.00;101242.44;4967811;28;20054;-88
2021/08/30 07:38:45;;;;;;;2.60;1.90;;;;;;;14.34;100.00;101220.38;4968068;28;20491;-87
2021/08/30 07:41:18;;;;;;;2.22;1.90;;;;;;;14.55;100.00;101240.91;4968308;28;20058;-85
2021/08/30 07:43:53;;;;;;;2.50;1.70;;;;;;;14.36;100.00;101234.56;4966177;28;20054;-88
2021/08/30 07:46:21;;;;;;;2.75;2.00;;;;;;;14.48;100.00;101253.34;4966851;28;20055;-86
2021/08/30 07:49:22;;;;;;;2.28;1.73;;;;;;;14.37;100.00;101256.16;4965144;28;20054;-85
2021/08/30 07:51:56;;;;;;;2.35;1.92;;;;;;;14.37;100.00;101258.91;4964114;28;20058;-85
2021/08/30 07:55:18;;;;;;;2.45;2.00;;;;;;;14.40;100.00;101263.00;4964937;28;20050;-85
2021/08/30 07:57:52;;;;;;;2.50;1.85;;;;;;;14.24;100.00;101251.41;4981426;28;20054;-85
2021/08/30 08:00:49;;;;;;;2.95;1.95;;;;;;;14.42;100.00;101278.03;4961329;28;20688;-87
2021/08/30 08:03:22;;;;;;;2.22;1.80;;;;;;;14.37;100.00;101278.06;4965990;28;20054;-88
2021/08/30 08:06:50;;;;;;;2.20;1.70;;;;;;;14.32;100.00;101283.63;4963220;28;20384;-87
2021/08/30 08:09:20;;;;;;;3.05;1.80;;;;;;;14.29;100.00;101285.03;4965363;28;20059;-86
2021/08/30 08:11:53;;;;;;;1.90;1.70;;;;;;;14.34;100.00;101277.88;4963759;28;20054;-89
2021/08/30 08:14:22;;;;;;;2.55;1.80;;;;;;;14.34;100.00;101289.63;4963472;28;20066;-87
2021/08/30 08:16:52;;;;;;;2.30;1.80;;;;;;;14.40;100.00;101283.00;4963738;28;20058;-87
2021/08/30 08:19:24;;;;;;;2.35;1.70;;;;;;;14.46;100.00;101297.44;4963553;28;20069;-87
2021/08/30 08:21:55;;;;;;;2.60;1.70;;;;;;;14.48;100.00;101297.16;4963582;28;20054;-86
2021/08/30 08:24:28;;;;;;;3.67;2.00;;;;;;;14.72;100.00;101292.50;4964869;28;20070;-88
2021/08/30 08:27:03;;;;;;;2.20;1.70;;;;;;;14.54;100.00;101285.00;4965938;28;20055;-89
2021/08/30 08:29:36;;;;;;;3.92;2.10;;;;;;;14.75;100.00;101302.88;4965307;28;20059;-85
2021/08/30 08:32:07;;;;;;;2.08;1.83;;;;;;;14.86;100.00;101283.56;4966895;28;20078;-90
2021/08/30 08:34:35;;;;;;;2.28;1.80;;;;;;;15.06;100.00;101297.00;4968471;28;20062;-87
2021/08/30 08:37:06;;;;;;;2.83;1.90;;;;;;;15.04;100.00;101295.66;4968846;28;20082;-89
2021/08/30 08:39:39;;;;;;;2.47;1.75;;;;;;;15.20;100.00;101294.31;4967289;28;20059;-89
2021/08/30 08:42:29;;;;;;;1.70;1.50;;;;;;;15.14;100.00;101295.53;4964324;28;20415;-87
2021/08/30 08:45:04;;;;;;;1.67;1.40;;;;;;;14.99;100.00;101287.53;4966760;28;21033;-88
2021/08/30 08:47:36;;;;;;;1.80;1.40;;;;;;;14.94;100.00;101300.19;4967127;28;20070;-88
2021/08/30 08:50:07;;;;;;;2.20;1.60;;;;;;;14.95;100.00;101303.72;4967241;28;20051;-88
2021/08/30 08:52:36;;;;;;;1.55;1.40;;;;;;;14.89;100.00;101300.25;4964137;28;20593;-89
2021/08/30 08:55:05;;;;;;;1.55;1.42;;;;;;;14.98;100.00;101299.59;4966531;28;20616;-88
2021/08/30 08:57:33;;;;;;;1.95;1.50;;;;;;;15.10;100.00;101306.25;4969060;28;20506;-91
2021/08/30 09:00:09;;;;;;;2.33;1.70;;;;;;;15.06;100.00;101298.94;4969304;28;20031;-89
2021/08/30 09:03:12;;;;;;;1.95;1.40;;;;;;;14.93;100.00;101306.75;4968911;28;20085;-90
2021/08/30 09:05:46;;;;;;;3.00;1.77;;;;;;;15.02;100.00;101309.66;4965678;28;20066;-89
2021/08/30 09:08:32;;;;;;;2.00;1.50;;;;;;;14.90;100.00;101281.84;4963250;28;20051;-89
2021/08/30 09:11:01;;;;;;;2.38;1.50;;;;;;;15.14;100.00;101301.81;4964334;28;20047;-89
2021/08/30 09:14:01;;;;;;;1.70;1.40;;;;;;;15.18;100.00;101309.44;4968669;28;20479;-89
2021/08/30 09:16:36;;;;;;;2.45;1.38;;;;;;;14.88;100.00;101276.69;4968368;28;20073;-89
2021/08/30 09:19:08;;;;;;;1.60;1.30;;;;;;;15.19;100.00;101295.47;4964137;28;20051;-87
2021/08/30 09:21:42;;;;;;;1.98;1.42;;;;;;;14.85;100.00;101276.47;4966338;28;20062;-87
2021/08/30 09:24:12;;;;;;;1.58;1.30;;;;;;;14.93;100.00;101308.69;4965235;28;20047;-88
2021/08/30 09:26:47;;;;;;;2.25;1.50;;;;;;;14.84;100.00;101305.78;4969185;28;20073;-87
2021/08/30 09:29:17;;;;;;;3.38;1.50;;;;;;;14.85;100.00;101306.59;4966878;28;20054;-87
2021/08/30 09:32:04;;;;;;;3.63;1.50;;;;;;;14.76;100.00;101312.75;4964985;28;20090;-88
2021/08/30 09:34:36;;;;;;;2.45;1.30;;;;;;;14.46;100.00;101270.06;4967725;28;20055;-89
2021/08/30 09:37:12;;;;;;;2.15;1.48;;;;;;;14.72;100.00;101308.13;4965558;28;20059;-88
2021/08/30 09:39:45;;;;;;;1.80;1.50;;;;;;;14.63;100.00;101303.28;4965179;28;20066;-88
2021/08/30 09:42:41;;;;;;;2.72;1.40;;;;;;;14.61;100.00;101316.44;4962865;28;20061;-90
2021/08/30 09:45:16;;;;;;;1.93;1.47;;;;;;;14.71;100.00;101318.28;4967544;28;20479;-89
2021/08/30 09:47:54;;;;;;;1.70;1.52;;;;;;;14.55;100.00;101279.25;4968759;28;20298;-91
2021/08/30 09:50:31;;;;;;;2.25;1.90;;;;;;;14.65;100.00;101310.41;4970079;28;20384;-88
2021/08/30 09:53:05;;;;;;;1.75;1.50;;;;;;;14.91;100.00;101308.97;4968180;28;20059;-86
2021/08/30 09:55:38;;;;;;;1.80;1.35;;;;;;;15.19;100.00;101303.69;4969736;28;20223;-90
2021/08/30 09:58:07;;;;;;;3.45;1.60;;;;;;;15.23;99.18;101281.97;4967419;28;20099;-87
2021/08/30 10:00:36;;;;;;;2.40;1.50;;;;;;;15.65;99.43;101304.91;4968680;28;20054;-88
2021/08/30 10:03:07;;;;;;;1.50;1.40;;;;;;;15.85;98.35;101302.97;4970291;28;20079;-88
2021/08/30 10:05:43;;;;;;;2.17;1.40;;;;;;;15.47;98.44;101281.88;4967483;28;20061;-89
2021/08/30 10:08:15;;;;;;;1.73;1.33;;;;;;;15.46;97.10;101304.94;4967932;28;20047;-90
2021/08/30 10:10:49;;;;;;;2.45;1.27;;;;;;;15.65;97.40;101296.69;4967572;28;20073;-89
2021/08/30 10:13:18;;;;;;;1.63;1.45;;;;;;;15.60;97.75;101310.47;4966616;28;20692;-89
2021/08/30 10:15:53;;;;;;;1.60;1.30;;;;;;;15.46;98.16;101310.41;4969621;28;20059;-89
2021/08/30 10:18:26;;;;;;;1.75;1.50;;;;;;;15.51;97.37;101315.00;4970277;28;20539;-90
2021/08/30 10:20:55;;;;;;;3.10;1.42;;;;;;;15.42;96.62;101306.63;4969456;28;20058;-86
2021/08/30 10:23:24;;;;;;;1.70;1.40;;;;;;;15.34;97.19;101308.09;4966469;28;20081;-89
2021/08/30 10:26:02;;;;;;;3.60;1.55;;;;;;;15.40;98.24;101308.88;4968556;28;20043;-87
2021/08/30 10:28:36;;;;;;;2.05;1.30;;;;;;;15.25;97.53;101297.00;4967564;28;20054;-91
2021/08/30 10:31:19;;;;;;;1.60;1.40;;;;;;;15.45;97.06;101311.53;4972009;28;20082;-87
2021/08/30 10:33:50;;;;;;;2.03;1.38;;;;;;;15.43;96.99;101316.50;4968616;28;20483;-87
2021/08/30 10:36:27;;;;;;;1.33;1.20;;;;;;;15.41;96.80;101322.28;4969711;28;20046;-89
2021/08/30 10:39:23;;;;;;;2.10;1.42;;;;;;;15.51;95.27;101328.72;4974314;28;20495;-91
2021/08/30 10:41:51;;;;;;;2.15;1.30;;;;;;;15.13;95.58;101278.28;4968452;28;20061;-90
2021/08/30 10:44:26;;;;;;;1.70;1.33;;;;;;;15.38;96.36;101311.09;4969450;28;20063;-86
2021/08/30 10:47:01;;;;;;;1.58;1.40;;;;;;;15.36;96.13;101289.44;4967370;28;20063;-88
2021/08/30 10:49:31;;;;;;;1.88;1.30;;;;;;;15.46;96.32;101285.72;4965812;28;20051;-87
2021/08/30 10:52:10;;;;;;;1.50;1.10;;;;;;;15.84;94.03;101320.56;4970342;28;20055;-87
2021/08/30 10:54:52;;;;;;;1.40;1.30;;;;;;;15.30;93.76;101296.09;4968753;28;20073;-89
2021/08/30 10:57:32;;;;;;;1.83;1.25;;;;;;;15.70;93.87;101323.22;4983060;28;20514;-85
2021/08/30 11:00:01;;;;;;;2.20;1.23;;;;;;;15.76;93.00;101311.06;4971014;28;20063;-88
2021/08/30 11:02:39;;;;;;;1.33;1.20;;;;;;;15.81;93.50;101321.97;4970200;28;20058;-89
2021/08/30 11:05:13;;;;;;;2.95;1.30;;;;;;;15.89;93.04;101315.00;4969730;28;20515;-89
2021/08/30 11:07:43;;;;;;;2.00;1.30;;;;;;;15.58;93.36;101277.84;4967845;28;20050;-91
2021/08/30 11:10:12;;;;;;;2.28;1.30;;;;;;;15.96;93.45;101319.00;4969237;28;20068;-86
2021/08/30 11:12:51;;;;;;;2.03;1.50;;;;;;;15.69;92.93;101292.22;4967438;28;20054;-88
2021/08/30 11:15:20;;;;;;;1.70;1.50;;;;;;;15.58;94.55;101301.75;4966828;28;20050;-89
2021/08/30 11:17:58;;;;;;;1.30;1.20;;;;;;;15.86;92.45;101321.88;4969334;28;20509;-88
2021/08/30 11:20:27;;;;;;;1.20;1.10;;;;;;;15.86;92.49;101313.66;4967755;28;20059;-88
2021/08/30 11:22:57;;;;;;;1.65;1.27;;;;;;;15.94;92.44;101323.94;4969271;28;20116;-89
2021/08/30 11:25:36;;;;;;;1.50;1.35;;;;;;;16.07;92.48;101325.09;4970907;28;20051;-88
2021/08/30 11:28:22;;;;;;;1.70;1.30;;;;;;;16.14;92.94;101322.78;4968935;28;20444;-88
2021/08/30 11:31:02;;;;;;;2.08;1.40;;;;;;;16.10;92.76;101316.28;4970399;28;20051;-90
2021/08/30 11:33:31;;;;;;;1.33;1.10;;;;;;;15.95;91.17;101327.50;4968542;28;20062;-88
2021/08/30 11:36:01;;;;;;;1.80;1.33;;;;;;;16.04;91.59;101324.91;4966697;28;20050;-89
2021/08/30 11:38:35;;;;;;;1.30;1.20;;;;;;;15.96;91.78;101315.41;4970101;28;20059;-87
2021/08/30 11:41:20;;;;;;;2.28;1.40;;;;;;;16.17;91.26;101309.56;4969650;28;20051;-84
2021/08/30 11:43:49;;;;;;;1.15;1.05;;;;;;;16.15;91.23;101294.19;4977458;28;20066;-89
2021/08/30 11:46:17;;;;;;;1.30;1.13;;;;;;;16.35;90.33;101330.66;4968657;28;20051;-89
2021/08/30 11:48:56;;;;;;;1.80;1.20;;;;;;;16.33;89.99;101310.91;4967703;28;20495;-87
2021/08/30 11:51:25;;;;;;;1.48;1.17;;;;;;;16.30;89.13;101330.75;4967690;28;20049;-89
2021/08/30 11:54:04;;;;;;;2.65;1.30;;;;;;;16.19;89.59;101329.31;4966544;28;20058;-89
2021/08/30 11:56:41;;;;;;;3.20;1.40;;;;;;;16.07;92.24;101330.59;4966040;28;20063;-88